Jessica S. Settoon — WDD9545 — position and weather

sailwx.info

Track history (hours):
 
Tides and Currents Weather Stations Pressure Air Temp Water Temp Dewpoint Dewpoint Depression Visibility Wind Speed Wind Dir Waves Ship Positions

Jessica S. Settoon

Owner: Settoon Towing LLC, Houma, LA. More information available from US FCC via Universal Licensing System and Coast Guard Vessel Documentation Center.

Last reported at 2017-Feb-19 11:31 UTC. Time now 2017-Feb-19 12:03 UTC.
Position N 29°50' W 091°59'.

Length 17 m; draft 3 m.

Type: Tug. MMSI: 367312940.

Date/timePositionNaut miles runAvg speedWind from/ knotsBaromVisibWave heightAir tempDewpointWater temp
2017-Feb-19 11:31N 29°50' W 091°59'0 0.0
2017-Feb-19 10:33N 29°50' W 091°59'0 0.0
2017-Feb-19 09:33N 29°50' W 091°59'0 0.0
2017-Feb-19 08:33N 29°50' W 091°59'0 0.0
2017-Feb-19 07:33N 29°50' W 091°59'0 0.0
2017-Feb-19 06:33N 29°50' W 091°59'0 0.0
2017-Feb-19 05:33N 29°50' W 091°59'0 0.0
2017-Feb-19 04:33N 29°50' W 091°59'0 0.0
2017-Feb-19 03:33N 29°50' W 091°59'0 0.0
2017-Feb-19 02:33N 29°50' W 091°59'0 0.0
2017-Feb-19 01:33N 29°50' W 091°59'0 0.0
2017-Feb-19 00:33N 29°50' W 091°59'0 0.0
2017-Feb-18 23:33N 29°50' W 091°59'0 0.0
2017-Feb-18 22:33N 29°50' W 091°59'0 0.0
2017-Feb-18 21:33N 29°50' W 091°59'0 0.0
2017-Feb-18 20:33N 29°50' W 091°59'0 0.0
2017-Feb-18 19:33N 29°50' W 091°59'0 0.0
2017-Feb-18 18:33N 29°50' W 091°59'0 0.0
2017-Feb-18 17:33N 29°50' W 091°59'0 0.0
2017-Feb-18 16:33N 29°50' W 091°59'0 0.0
2017-Feb-18 15:33N 29°50' W 091°59'0 0.0
2017-Feb-18 14:33N 29°50' W 091°59'0 0.0
2017-Feb-18 13:33N 29°50' W 091°59'0 0.0
2017-Feb-18 12:33N 29°50' W 091°59'0 0.0
2017-Feb-18 11:33N 29°50' W 091°59'0 0.0
2017-Feb-18 10:33N 29°50' W 091°59'0 0.0
2017-Feb-18 09:33N 29°50' W 091°59'0 0.0
2017-Feb-18 08:33N 29°50' W 091°59'0 0.0
2017-Feb-18 07:33N 29°50' W 091°59'0 0.0
2017-Feb-18 06:33N 29°50' W 091°59'0 0.0
2017-Feb-18 05:33N 29°50' W 091°59'0 0.0
2017-Feb-18 04:33N 29°50' W 091°59'0 0.0
2017-Feb-18 03:33N 29°50' W 091°59'0 0.0
2017-Feb-18 02:33N 29°50' W 091°59'0 0.4
2017-Feb-18 01:33N 29°50' W 091°59'55 1.6
2017-Feb-16 16:10N 29°35' W 090°58'4 6.0
2017-Feb-16 15:33N 29°33' W 090°55'5 5.4
2017-Feb-16 14:33N 29°32' W 090°49'5 5.0
2017-Feb-16 13:33N 29°34' W 090°43'3 3.2
2017-Feb-16 12:33N 29°36' W 090°40'5 4.8
2017-Feb-16 11:33N 29°35' W 090°35'6 5.5
2017-Feb-16 10:33N 29°34' W 090°29'2 0.1
2017-Feb-15 12:17N 29°33' W 090°26'5 7.3
2017-Feb-15 11:33N 29°34' W 090°32'5 4.6
2017-Feb-15 10:33N 29°35' W 090°37'4 4.1
2017-Feb-15 09:33N 29°37' W 090°41'2 2.2
2017-Feb-15 08:33N 29°35' W 090°43'0 0.0
2017-Feb-15 07:33N 29°35' W 090°43'4 4.1
2017-Feb-15 06:33N 29°32' W 090°47'60 2.6
2017-Feb-14 07:14N 29°51' W 091°52'4 6.6
2017-Feb-14 06:33N 29°50' W 091°57'2 2.3
2017-Feb-14 05:33N 29°50' W 091°59'0 0.0
2017-Feb-14 04:34N 29°50' W 091°59'0 0.0
2017-Feb-14 03:33N 29°50' W 091°59'0 0.0
2017-Feb-14 02:33N 29°50' W 091°59'0 0.0
2017-Feb-14 01:34N 29°50' W 091°59'0 0.0
2017-Feb-14 00:33N 29°50' W 091°59'0 0.0
2017-Feb-13 23:33N 29°50' W 091°59'58 1.3
2017-Feb-12 04:33N 29°34' W 090°56'6 5.8
2017-Feb-12 03:33N 29°32' W 090°50'5 5.3
2017-Feb-12 02:33N 29°34' W 090°44'1 0.8
2017-Feb-12 01:33N 29°34' W 090°43'5 5.1
2017-Feb-12 00:33N 29°29' W 090°43'6 0.4
2017-Feb-11 06:21N 29°23' W 090°44'5 5.8
2017-Feb-11 05:33N 29°27' W 090°43'6 6.2
2017-Feb-11 04:33N 29°33' W 090°42'4 3.7
2017-Feb-11 03:33N 29°32' W 090°47'12 0.6
2017-Feb-10 08:09N 29°37' W 090°59'  
Track history (hours):
 
Tides and Currents Weather Stations Pressure Air Temp Water Temp Dewpoint Dewpoint Depression Visibility Wind Speed Wind Dir Waves Ship Positions

Jessica S. Settoon

Owner: Settoon Towing LLC, Houma, LA. More information available from US FCC via Universal Licensing System and Coast Guard Vessel Documentation Center.

Last reported at 2017-Feb-19 11:31 UTC. Time now 2017-Feb-19 12:03 UTC.
Position N 29°50' W 091°59'.

Length 17 m; draft 3 m.

Type: Tug. MMSI: 367312940.

Date/timePositionNaut miles runAvg speedWind from/ knotsBaromVisibWave heightAir tempDewpointWater temp
2017-Feb-19 11:31N 29°50' W 091°59'0 0.0
2017-Feb-19 10:33N 29°50' W 091°59'0 0.0
2017-Feb-19 09:33N 29°50' W 091°59'0 0.0
2017-Feb-19 08:33N 29°50' W 091°59'0 0.0
2017-Feb-19 07:33N 29°50' W 091°59'0 0.0
2017-Feb-19 06:33N 29°50' W 091°59'0 0.0
2017-Feb-19 05:33N 29°50' W 091°59'0 0.0
2017-Feb-19 04:33N 29°50' W 091°59'0 0.0
2017-Feb-19 03:33N 29°50' W 091°59'0 0.0
2017-Feb-19 02:33N 29°50' W 091°59'0 0.0
2017-Feb-19 01:33N 29°50' W 091°59'0 0.0
2017-Feb-19 00:33N 29°50' W 091°59'0 0.0
2017-Feb-18 23:33N 29°50' W 091°59'0 0.0
2017-Feb-18 22:33N 29°50' W 091°59'0 0.0
2017-Feb-18 21:33N 29°50' W 091°59'0 0.0
2017-Feb-18 20:33N 29°50' W 091°59'0 0.0
2017-Feb-18 19:33N 29°50' W 091°59'0 0.0
2017-Feb-18 18:33N 29°50' W 091°59'0 0.0
2017-Feb-18 17:33N 29°50' W 091°59'0 0.0
2017-Feb-18 16:33N 29°50' W 091°59'0 0.0
2017-Feb-18 15:33N 29°50' W 091°59'0 0.0
2017-Feb-18 14:33N 29°50' W 091°59'0 0.0
2017-Feb-18 13:33N 29°50' W 091°59'0 0.0
2017-Feb-18 12:33N 29°50' W 091°59'0 0.0
2017-Feb-18 11:33N 29°50' W 091°59'0 0.0
2017-Feb-18 10:33N 29°50' W 091°59'0 0.0
2017-Feb-18 09:33N 29°50' W 091°59'0 0.0
2017-Feb-18 08:33N 29°50' W 091°59'0 0.0
2017-Feb-18 07:33N 29°50' W 091°59'0 0.0
2017-Feb-18 06:33N 29°50' W 091°59'0 0.0
2017-Feb-18 05:33N 29°50' W 091°59'0 0.0
2017-Feb-18 04:33N 29°50' W 091°59'0 0.0
2017-Feb-18 03:33N 29°50' W 091°59'0 0.0
2017-Feb-18 02:33N 29°50' W 091°59'0 0.4
2017-Feb-18 01:33N 29°50' W 091°59'55 1.6
2017-Feb-16 16:10N 29°35' W 090°58'4 6.0
2017-Feb-16 15:33N 29°33' W 090°55'5 5.4
2017-Feb-16 14:33N 29°32' W 090°49'5 5.0
2017-Feb-16 13:33N 29°34' W 090°43'3 3.2
2017-Feb-16 12:33N 29°36' W 090°40'5 4.8
2017-Feb-16 11:33N 29°35' W 090°35'6 5.5
2017-Feb-16 10:33N 29°34' W 090°29'2 0.1
2017-Feb-15 12:17N 29°33' W 090°26'5 7.3
2017-Feb-15 11:33N 29°34' W 090°32'5 4.6
2017-Feb-15 10:33N 29°35' W 090°37'4 4.1
2017-Feb-15 09:33N 29°37' W 090°41'2 2.2
2017-Feb-15 08:33N 29°35' W 090°43'0 0.0
2017-Feb-15 07:33N 29°35' W 090°43'4 4.1
2017-Feb-15 06:33N 29°32' W 090°47'60 2.6
2017-Feb-14 07:14N 29°51' W 091°52'4 6.6
2017-Feb-14 06:33N 29°50' W 091°57'2 2.3
2017-Feb-14 05:33N 29°50' W 091°59'0 0.0
2017-Feb-14 04:34N 29°50' W 091°59'0 0.0
2017-Feb-14 03:33N 29°50' W 091°59'0 0.0
2017-Feb-14 02:33N 29°50' W 091°59'0 0.0
2017-Feb-14 01:34N 29°50' W 091°59'0 0.0
2017-Feb-14 00:33N 29°50' W 091°59'0 0.0
2017-Feb-13 23:33N 29°50' W 091°59'58 1.3
2017-Feb-12 04:33N 29°34' W 090°56'6 5.8
2017-Feb-12 03:33N 29°32' W 090°50'5 5.3
2017-Feb-12 02:33N 29°34' W 090°44'1 0.8
2017-Feb-12 01:33N 29°34' W 090°43'5 5.1
2017-Feb-12 00:33N 29°29' W 090°43'6 0.4
2017-Feb-11 06:21N 29°23' W 090°44'5 5.8
2017-Feb-11 05:33N 29°27' W 090°43'6 6.2
2017-Feb-11 04:33N 29°33' W 090°42'4 3.7
2017-Feb-11 03:33N 29°32' W 090°47'12 0.6
2017-Feb-10 08:09N 29°37' W 090°59'  

Dump ship's entire track history